sensor_id;sensor_type;location;lat;lon;timestamp;P1;durP1;ratioP1;P2;durP2;ratioP2
22070;SDS011;11200;51.488;6.668;2023-10-08T00:00:43;5.82;;;4.00;;
22070;SDS011;11200;51.488;6.668;2023-10-08T00:03:14;5.88;;;4.13;;
22070;SDS011;11200;51.488;6.668;2023-10-08T00:05:42;5.25;;;3.83;;
22070;SDS011;11200;51.488;6.668;2023-10-08T00:08:08;4.47;;;3.65;;
22070;SDS011;11200;51.488;6.668;2023-10-08T00:10:37;4.93;;;3.47;;
22070;SDS011;11200;51.488;6.668;2023-10-08T00:13:06;5.28;;;3.90;;
22070;SDS011;11200;51.488;6.668;2023-10-08T00:15:34;5.15;;;3.88;;
22070;SDS011;11200;51.488;6.668;2023-10-08T00:18:01;4.75;;;3.70;;
22070;SDS011;11200;51.488;6.668;2023-10-08T00:20:34;5.00;;;3.72;;
22070;SDS011;11200;51.488;6.668;2023-10-08T00:23:20;5.32;;;3.80;;
22070;SDS011;11200;51.488;6.668;2023-10-08T00:25:47;4.75;;;3.72;;
22070;SDS011;11200;51.488;6.668;2023-10-08T00:28:15;5.10;;;3.95;;
22070;SDS011;11200;51.488;6.668;2023-10-08T00:30:42;6.72;;;3.92;;
22070;SDS011;11200;51.488;6.668;2023-10-08T00:33:08;5.53;;;3.70;;
22070;SDS011;11200;51.488;6.668;2023-10-08T00:35:37;7.43;;;4.18;;
22070;SDS011;11200;51.488;6.668;2023-10-08T00:38:04;4.93;;;4.00;;
22070;SDS011;11200;51.488;6.668;2023-10-08T00:40:36;7.55;;;4.05;;
22070;SDS011;11200;51.488;6.668;2023-10-08T00:43:03;5.80;;;3.97;;
22070;SDS011;11200;51.488;6.668;2023-10-08T00:45:37;6.25;;;4.28;;
22070;SDS011;11200;51.488;6.668;2023-10-08T00:48:11;5.95;;;3.75;;
22070;SDS011;11200;51.488;6.668;2023-10-08T00:50:41;7.38;;;4.32;;
22070;SDS011;11200;51.488;6.668;2023-10-08T00:53:09;5.32;;;3.80;;
22070;SDS011;11200;51.488;6.668;2023-10-08T00:55:46;5.45;;;3.72;;
22070;SDS011;11200;51.488;6.668;2023-10-08T00:58:19;5.93;;;3.90;;
22070;SDS011;11200;51.488;6.668;2023-10-08T01:00:52;5.85;;;4.07;;
22070;SDS011;11200;51.488;6.668;2023-10-08T01:03:25;5.72;;;3.97;;
22070;SDS011;11200;51.488;6.668;2023-10-08T01:05:54;4.57;;;3.67;;
22070;SDS011;11200;51.488;6.668;2023-10-08T01:08:22;5.25;;;3.90;;
22070;SDS011;11200;51.488;6.668;2023-10-08T01:14:14;6.38;;;4.07;;
22070;SDS011;11200;51.488;6.668;2023-10-08T01:16:50;6.72;;;4.10;;
22070;SDS011;11200;51.488;6.668;2023-10-08T01:19:18;5.80;;;4.10;;
22070;SDS011;11200;51.488;6.668;2023-10-08T01:21:45;5.43;;;3.67;;
22070;SDS011;11200;51.488;6.668;2023-10-08T01:24:11;5.28;;;3.80;;
22070;SDS011;11200;51.488;6.668;2023-10-08T01:26:41;7.10;;;4.20;;
22070;SDS011;11200;51.488;6.668;2023-10-08T01:29:10;7.25;;;3.83;;
22070;SDS011;11200;51.488;6.668;2023-10-08T01:31:44;5.00;;;3.75;;
22070;SDS011;11200;51.488;6.668;2023-10-08T01:34:11;5.57;;;3.63;;
22070;SDS011;11200;51.488;6.668;2023-10-08T01:36:41;5.63;;;3.75;;
22070;SDS011;11200;51.488;6.668;2023-10-08T01:39:09;6.22;;;4.10;;
22070;SDS011;11200;51.488;6.668;2023-10-08T01:41:40;6.63;;;3.97;;
22070;SDS011;11200;51.488;6.668;2023-10-08T01:44:07;6.25;;;3.67;;
22070;SDS011;11200;51.488;6.668;2023-10-08T01:46:33;6.85;;;3.83;;
22070;SDS011;11200;51.488;6.668;2023-10-08T01:48:59;7.00;;;3.65;;
22070;SDS011;11200;51.488;6.668;2023-10-08T01:51:30;6.07;;;3.83;;
22070;SDS011;11200;51.488;6.668;2023-10-08T01:54:11;7.40;;;4.15;;
22070;SDS011;11200;51.488;6.668;2023-10-08T01:56:39;6.72;;;4.05;;
22070;SDS011;11200;51.488;6.668;2023-10-08T01:59:12;5.82;;;4.00;;
22070;SDS011;11200;51.488;6.668;2023-10-08T02:01:41;5.70;;;4.00;;
22070;SDS011;11200;51.488;6.668;2023-10-08T02:04:08;5.07;;;3.50;;
22070;SDS011;11200;51.488;6.668;2023-10-08T02:06:35;5.18;;;3.80;;
22070;SDS011;11200;51.488;6.668;2023-10-08T02:09:01;5.25;;;4.18;;
22070;SDS011;11200;51.488;6.668;2023-10-08T02:11:45;5.50;;;3.85;;
22070;SDS011;11200;51.488;6.668;2023-10-08T02:14:16;5.20;;;3.83;;
22070;SDS011;11200;51.488;6.668;2023-10-08T02:16:45;6.35;;;4.15;;
22070;SDS011;11200;51.488;6.668;2023-10-08T02:19:11;4.80;;;3.72;;
22070;SDS011;11200;51.488;6.668;2023-10-08T02:21:37;5.22;;;3.65;;
22070;SDS011;11200;51.488;6.668;2023-10-08T02:24:05;6.35;;;4.07;;
22070;SDS011;11200;51.488;6.668;2023-10-08T02:26:32;5.55;;;3.70;;
22070;SDS011;11200;51.488;6.668;2023-10-08T02:28:59;4.93;;;3.80;;
22070;SDS011;11200;51.488;6.668;2023-10-08T02:31:31;7.22;;;4.65;;
22070;SDS011;11200;51.488;6.668;2023-10-08T02:33:57;5.70;;;3.92;;
22070;SDS011;11200;51.488;6.668;2023-10-08T02:36:24;5.72;;;4.20;;
22070;SDS011;11200;51.488;6.668;2023-10-08T02:38:49;4.95;;;3.75;;
22070;SDS011;11200;51.488;6.668;2023-10-08T02:41:15;5.57;;;3.88;;
22070;SDS011;11200;51.488;6.668;2023-10-08T02:43:42;6.95;;;4.22;;
22070;SDS011;11200;51.488;6.668;2023-10-08T02:46:10;6.38;;;4.03;;
22070;SDS011;11200;51.488;6.668;2023-10-08T02:48:40;5.03;;;3.90;;
22070;SDS011;11200;51.488;6.668;2023-10-08T02:51:05;8.02;;;3.95;;
22070;SDS011;11200;51.488;6.668;2023-10-08T02:53:40;5.68;;;3.88;;
22070;SDS011;11200;51.488;6.668;2023-10-08T02:56:09;5.90;;;3.85;;
22070;SDS011;11200;51.488;6.668;2023-10-08T02:58:41;6.88;;;4.22;;
22070;SDS011;11200;51.488;6.668;2023-10-08T03:01:11;4.95;;;3.55;;
22070;SDS011;11200;51.488;6.668;2023-10-08T03:03:38;5.75;;;4.30;;
22070;SDS011;11200;51.488;6.668;2023-10-08T03:06:06;7.35;;;4.18;;
22070;SDS011;11200;51.488;6.668;2023-10-08T03:08:36;5.70;;;3.88;;
22070;SDS011;11200;51.488;6.668;2023-10-08T03:11:03;6.05;;;4.03;;
22070;SDS011;11200;51.488;6.668;2023-10-08T03:13:29;6.97;;;4.18;;
22070;SDS011;11200;51.488;6.668;2023-10-08T03:15:55;5.93;;;4.13;;
22070;SDS011;11200;51.488;6.668;2023-10-08T03:18:33;6.28;;;3.97;;
22070;SDS011;11200;51.488;6.668;2023-10-08T03:21:02;5.25;;;4.03;;
22070;SDS011;11200;51.488;6.668;2023-10-08T03:23:30;8.48;;;4.30;;
22070;SDS011;11200;51.488;6.668;2023-10-08T03:26:02;7.20;;;4.10;;
22070;SDS011;11200;51.488;6.668;2023-10-08T03:28:34;6.03;;;4.00;;
22070;SDS011;11200;51.488;6.668;2023-10-08T03:31:00;5.68;;;4.10;;
22070;SDS011;11200;51.488;6.668;2023-10-08T03:33:43;5.20;;;4.05;;
22070;SDS011;11200;51.488;6.668;2023-10-08T03:36:14;5.30;;;4.10;;
22070;SDS011;11200;51.488;6.668;2023-10-08T03:38:46;7.20;;;4.25;;
22070;SDS011;11200;51.488;6.668;2023-10-08T03:41:24;6.55;;;4.18;;
22070;SDS011;11200;51.488;6.668;2023-10-08T03:43:54;5.97;;;3.72;;
22070;SDS011;11200;51.488;6.668;2023-10-08T03:46:29;5.28;;;3.88;;
22070;SDS011;11200;51.488;6.668;2023-10-08T03:48:55;8.10;;;4.68;;
22070;SDS011;11200;51.488;6.668;2023-10-08T03:51:31;6.53;;;4.10;;
22070;SDS011;11200;51.488;6.668;2023-10-08T03:54:04;5.53;;;4.10;;
22070;SDS011;11200;51.488;6.668;2023-10-08T03:56:42;6.05;;;4.05;;
22070;SDS011;11200;51.488;6.668;2023-10-08T03:59:17;5.00;;;3.78;;
22070;SDS011;11200;51.488;6.668;2023-10-08T04:01:55;5.80;;;4.07;;
22070;SDS011;11200;51.488;6.668;2023-10-08T04:04:24;6.18;;;4.07;;
22070;SDS011;11200;51.488;6.668;2023-10-08T04:07:14;6.72;;;4.18;;
22070;SDS011;11200;51.488;6.668;2023-10-08T04:09:58;5.90;;;4.18;;
22070;SDS011;11200;51.488;6.668;2023-10-08T04:12:33;5.90;;;3.90;;
22070;SDS011;11200;51.488;6.668;2023-10-08T04:15:00;5.50;;;3.67;;
22070;SDS011;11200;51.488;6.668;2023-10-08T04:17:35;5.75;;;3.60;;
22070;SDS011;11200;51.488;6.668;2023-10-08T04:20:09;6.07;;;4.07;;
22070;SDS011;11200;51.488;6.668;2023-10-08T04:22:54;6.05;;;4.03;;
22070;SDS011;11200;51.488;6.668;2023-10-08T04:25:20;5.50;;;4.00;;
22070;SDS011;11200;51.488;6.668;2023-10-08T04:27:46;6.03;;;3.75;;
22070;SDS011;11200;51.488;6.668;2023-10-08T04:30:15;5.40;;;3.88;;
22070;SDS011;11200;51.488;6.668;2023-10-08T04:32:41;5.80;;;4.15;;
22070;SDS011;11200;51.488;6.668;2023-10-08T04:35:07;6.20;;;4.07;;
22070;SDS011;11200;51.488;6.668;2023-10-08T04:37:39;5.45;;;3.85;;
22070;SDS011;11200;51.488;6.668;2023-10-08T04:40:06;4.90;;;3.60;;
22070;SDS011;11200;51.488;6.668;2023-10-08T04:42:40;5.60;;;3.90;;
22070;SDS011;11200;51.488;6.668;2023-10-08T04:45:09;5.18;;;3.85;;
22070;SDS011;11200;51.488;6.668;2023-10-08T04:47:38;6.38;;;3.95;;
22070;SDS011;11200;51.488;6.668;2023-10-08T04:50:10;6.03;;;3.80;;
22070;SDS011;11200;51.488;6.668;2023-10-08T04:52:42;6.95;;;4.28;;
22070;SDS011;11200;51.488;6.668;2023-10-08T04:55:20;7.22;;;3.90;;
22070;SDS011;11200;51.488;6.668;2023-10-08T04:57:53;5.32;;;3.92;;
22070;SDS011;11200;51.488;6.668;2023-10-08T05:00:20;6.43;;;3.92;;
22070;SDS011;11200;51.488;6.668;2023-10-08T05:03:06;5.50;;;3.45;;
22070;SDS011;11200;51.488;6.668;2023-10-08T05:05:39;5.82;;;3.95;;
22070;SDS011;11200;51.488;6.668;2023-10-08T05:08:20;4.25;;;3.42;;
22070;SDS011;11200;51.488;6.668;2023-10-08T05:10:53;4.75;;;3.63;;
22070;SDS011;11200;51.488;6.668;2023-10-08T05:13:27;4.55;;;3.35;;
22070;SDS011;11200;51.488;6.668;2023-10-08T05:15:58;6.25;;;4.03;;
22070;SDS011;11200;51.488;6.668;2023-10-08T05:18:36;5.60;;;4.07;;
22070;SDS011;11200;51.488;6.668;2023-10-08T05:21:33;7.07;;;3.80;;
22070;SDS011;11200;51.488;6.668;2023-10-08T05:24:16;5.68;;;4.07;;
22070;SDS011;11200;51.488;6.668;2023-10-08T05:26:47;4.72;;;3.90;;
22070;SDS011;11200;51.488;6.668;2023-10-08T05:29:24;5.10;;;3.72;;
22070;SDS011;11200;51.488;6.668;2023-10-08T05:32:17;4.93;;;3.45;;
22070;SDS011;11200;51.488;6.668;2023-10-08T05:35:03;4.78;;;3.80;;
22070;SDS011;11200;51.488;6.668;2023-10-08T05:38:01;5.28;;;3.88;;
22070;SDS011;11200;51.488;6.668;2023-10-08T05:40:48;5.45;;;3.85;;
22070;SDS011;11200;51.488;6.668;2023-10-08T05:43:24;5.45;;;3.83;;
22070;SDS011;11200;51.488;6.668;2023-10-08T05:46:07;5.18;;;3.65;;
22070;SDS011;11200;51.488;6.668;2023-10-08T05:48:52;5.40;;;3.58;;
22070;SDS011;11200;51.488;6.668;2023-10-08T05:51:28;8.00;;;3.67;;
22070;SDS011;11200;51.488;6.668;2023-10-08T05:54:14;4.50;;;3.67;;
22070;SDS011;11200;51.488;6.668;2023-10-08T05:56:52;5.28;;;4.03;;
22070;SDS011;11200;51.488;6.668;2023-10-08T06:02:27;5.03;;;3.75;;
22070;SDS011;11200;51.488;6.668;2023-10-08T06:07:38;5.20;;;3.70;;
22070;SDS011;11200;51.488;6.668;2023-10-08T06:10:30;6.57;;;4.10;;
22070;SDS011;11200;51.488;6.668;2023-10-08T06:12:57;5.53;;;3.72;;
22070;SDS011;11200;51.488;6.668;2023-10-08T06:15:55;5.20;;;3.75;;
22070;SDS011;11200;51.488;6.668;2023-10-08T06:18:26;5.65;;;4.13;;
22070;SDS011;11200;51.488;6.668;2023-10-08T06:20:53;5.75;;;3.83;;
22070;SDS011;11200;51.488;6.668;2023-10-08T06:23:26;4.95;;;3.72;;
22070;SDS011;11200;51.488;6.668;2023-10-08T06:25:54;5.00;;;3.60;;
22070;SDS011;11200;51.488;6.668;2023-10-08T06:28:36;5.68;;;3.95;;
22070;SDS011;11200;51.488;6.668;2023-10-08T06:31:03;5.03;;;3.42;;
22070;SDS011;11200;51.488;6.668;2023-10-08T06:33:31;5.25;;;3.70;;
22070;SDS011;11200;51.488;6.668;2023-10-08T06:35:58;5.05;;;3.40;;
22070;SDS011;11200;51.488;6.668;2023-10-08T06:38:28;4.57;;;3.40;;
22070;SDS011;11200;51.488;6.668;2023-10-08T06:40:56;4.65;;;3.42;;
22070;SDS011;11200;51.488;6.668;2023-10-08T06:43:25;5.70;;;3.80;;
22070;SDS011;11200;51.488;6.668;2023-10-08T06:45:54;5.43;;;3.80;;
22070;SDS011;11200;51.488;6.668;2023-10-08T06:48:23;4.40;;;3.47;;
22070;SDS011;11200;51.488;6.668;2023-10-08T06:50:50;5.40;;;3.67;;
22070;SDS011;11200;51.488;6.668;2023-10-08T06:53:21;7.38;;;4.18;;
22070;SDS011;11200;51.488;6.668;2023-10-08T06:55:48;6.82;;;4.10;;
22070;SDS011;11200;51.488;6.668;2023-10-08T06:58:19;5.30;;;3.90;;
22070;SDS011;11200;51.488;6.668;2023-10-08T07:00:45;4.63;;;3.50;;
22070;SDS011;11200;51.488;6.668;2023-10-08T07:03:14;5.43;;;3.83;;
22070;SDS011;11200;51.488;6.668;2023-10-08T07:05:45;7.85;;;4.10;;
22070;SDS011;11200;51.488;6.668;2023-10-08T07:08:25;4.72;;;3.40;;
22070;SDS011;11200;51.488;6.668;2023-10-08T07:10:52;5.32;;;3.88;;
22070;SDS011;11200;51.488;6.668;2023-10-08T07:13:19;5.35;;;3.42;;
22070;SDS011;11200;51.488;6.668;2023-10-08T07:15:49;6.70;;;4.07;;
22070;SDS011;11200;51.488;6.668;2023-10-08T07:18:16;5.13;;;3.90;;
22070;SDS011;11200;51.488;6.668;2023-10-08T07:21:00;5.35;;;3.85;;
22070;SDS011;11200;51.488;6.668;2023-10-08T07:23:30;6.35;;;4.07;;
22070;SDS011;11200;51.488;6.668;2023-10-08T07:26:00;4.95;;;3.88;;
22070;SDS011;11200;51.488;6.668;2023-10-08T07:28:45;5.43;;;3.53;;
22070;SDS011;11200;51.488;6.668;2023-10-08T07:31:14;6.38;;;3.85;;
22070;SDS011;11200;51.488;6.668;2023-10-08T07:33:51;5.28;;;3.63;;
22070;SDS011;11200;51.488;6.668;2023-10-08T07:36:22;5.13;;;3.40;;
22070;SDS011;11200;51.488;6.668;2023-10-08T07:38:52;4.72;;;3.58;;
22070;SDS011;11200;51.488;6.668;2023-10-08T07:41:19;5.57;;;3.65;;
22070;SDS011;11200;51.488;6.668;2023-10-08T07:43:46;4.50;;;3.60;;
22070;SDS011;11200;51.488;6.668;2023-10-08T07:46:21;4.85;;;3.47;;
22070;SDS011;11200;51.488;6.668;2023-10-08T07:48:47;4.53;;;3.90;;
22070;SDS011;11200;51.488;6.668;2023-10-08T07:51:13;5.65;;;4.20;;
22070;SDS011;11200;51.488;6.668;2023-10-08T07:53:39;4.50;;;3.70;;
22070;SDS011;11200;51.488;6.668;2023-10-08T07:56:07;4.88;;;3.42;;
22070;SDS011;11200;51.488;6.668;2023-10-08T07:58:33;5.25;;;3.58;;
22070;SDS011;11200;51.488;6.668;2023-10-08T08:01:02;5.03;;;3.53;;
22070;SDS011;11200;51.488;6.668;2023-10-08T08:03:31;4.55;;;3.53;;
22070;SDS011;11200;51.488;6.668;2023-10-08T08:06:04;9.40;;;3.88;;
22070;SDS011;11200;51.488;6.668;2023-10-08T08:08:34;6.43;;;3.60;;
22070;SDS011;11200;51.488;6.668;2023-10-08T08:11:07;4.50;;;3.75;;
22070;SDS011;11200;51.488;6.668;2023-10-08T08:13:37;5.28;;;3.40;;
22070;SDS011;11200;51.488;6.668;2023-10-08T08:16:04;5.68;;;3.45;;
22070;SDS011;11200;51.488;6.668;2023-10-08T08:18:42;6.22;;;3.70;;
22070;SDS011;11200;51.488;6.668;2023-10-08T08:21:11;5.72;;;3.67;;
22070;SDS011;11200;51.488;6.668;2023-10-08T08:23:41;7.13;;;4.03;;
22070;SDS011;11200;51.488;6.668;2023-10-08T08:26:22;6.53;;;4.70;;
22070;SDS011;11200;51.488;6.668;2023-10-08T08:29:04;11.23;;;4.55;;
22070;SDS011;11200;51.488;6.668;2023-10-08T08:31:34;6.47;;;4.68;;
22070;SDS011;11200;51.488;6.668;2023-10-08T08:34:00;6.43;;;4.35;;
22070;SDS011;11200;51.488;6.668;2023-10-08T08:36:42;5.50;;;3.85;;
22070;SDS011;11200;51.488;6.668;2023-10-08T08:39:11;4.72;;;3.70;;
22070;SDS011;11200;51.488;6.668;2023-10-08T08:41:53;4.88;;;3.75;;
22070;SDS011;11200;51.488;6.668;2023-10-08T08:44:23;5.55;;;3.90;;
22070;SDS011;11200;51.488;6.668;2023-10-08T08:46:57;6.53;;;4.00;;
22070;SDS011;11200;51.488;6.668;2023-10-08T08:49:23;6.75;;;4.03;;
22070;SDS011;11200;51.488;6.668;2023-10-08T08:51:50;7.47;;;4.28;;
22070;SDS011;11200;51.488;6.668;2023-10-08T08:54:20;7.47;;;4.22;;
22070;SDS011;11200;51.488;6.668;2023-10-08T08:56:46;5.10;;;3.90;;
22070;SDS011;11200;51.488;6.668;2023-10-08T08:59:13;6.53;;;4.60;;
22070;SDS011;11200;51.488;6.668;2023-10-08T09:01:39;6.97;;;4.82;;
22070;SDS011;11200;51.488;6.668;2023-10-08T09:04:06;7.65;;;5.90;;
22070;SDS011;11200;51.488;6.668;2023-10-08T09:06:35;8.98;;;6.68;;
22070;SDS011;11200;51.488;6.668;2023-10-08T09:09:07;8.40;;;6.80;;
22070;SDS011;11200;51.488;6.668;2023-10-08T09:11:50;9.27;;;6.95;;
22070;SDS011;11200;51.488;6.668;2023-10-08T09:14:21;9.82;;;7.40;;
22070;SDS011;11200;51.488;6.668;2023-10-08T09:16:48;12.27;;;8.43;;
22070;SDS011;11200;51.488;6.668;2023-10-08T09:19:15;11.68;;;7.13;;
22070;SDS011;11200;51.488;6.668;2023-10-08T09:24:36;12.65;;;7.40;;
22070;SDS011;11200;51.488;6.668;2023-10-08T09:27:06;9.73;;;7.07;;
22070;SDS011;11200;51.488;6.668;2023-10-08T09:29:33;8.77;;;6.63;;
22070;SDS011;11200;51.488;6.668;2023-10-08T09:32:04;8.57;;;6.65;;
22070;SDS011;11200;51.488;6.668;2023-10-08T09:34:31;10.88;;;6.50;;
22070;SDS011;11200;51.488;6.668;2023-10-08T09:36:57;8.48;;;6.28;;
22070;SDS011;11200;51.488;6.668;2023-10-08T09:39:27;8.73;;;6.07;;
22070;SDS011;11200;51.488;6.668;2023-10-08T09:41:55;7.60;;;5.90;;
22070;SDS011;11200;51.488;6.668;2023-10-08T09:44:23;8.60;;;5.65;;
22070;SDS011;11200;51.488;6.668;2023-10-08T09:51:56;8.05;;;5.60;;
22070;SDS011;11200;51.488;6.668;2023-10-08T09:54:27;6.95;;;5.55;;
22070;SDS011;11200;51.488;6.668;2023-10-08T09:56:58;7.10;;;4.90;;
22070;SDS011;11200;51.488;6.668;2023-10-08T09:59:25;9.60;;;5.30;;
22070;SDS011;11200;51.488;6.668;2023-10-08T10:01:53;6.78;;;5.28;;
22070;SDS011;11200;51.488;6.668;2023-10-08T10:04:24;6.40;;;4.85;;
22070;SDS011;11200;51.488;6.668;2023-10-08T10:06:53;6.93;;;5.00;;
22070;SDS011;11200;51.488;6.668;2023-10-08T10:09:26;7.97;;;5.18;;
22070;SDS011;11200;51.488;6.668;2023-10-08T10:11:53;6.85;;;5.22;;
22070;SDS011;11200;51.488;6.668;2023-10-08T10:14:22;7.03;;;4.95;;
22070;SDS011;11200;51.488;6.668;2023-10-08T10:19:53;10.45;;;7.45;;
22070;SDS011;11200;51.488;6.668;2023-10-08T10:22:33;11.27;;;7.47;;
22070;SDS011;11200;51.488;6.668;2023-10-08T10:25:01;12.88;;;8.85;;
22070;SDS011;11200;51.488;6.668;2023-10-08T10:27:40;9.38;;;7.13;;
22070;SDS011;11200;51.488;6.668;2023-10-08T10:30:07;10.43;;;7.50;;
22070;SDS011;11200;51.488;6.668;2023-10-08T10:32:36;9.05;;;7.00;;
22070;SDS011;11200;51.488;6.668;2023-10-08T10:35:02;10.95;;;7.40;;
22070;SDS011;11200;51.488;6.668;2023-10-08T10:37:28;7.70;;;6.65;;
22070;SDS011;11200;51.488;6.668;2023-10-08T10:40:06;8.07;;;6.63;;
22070;SDS011;11200;51.488;6.668;2023-10-08T10:42:37;9.85;;;6.90;;
22070;SDS011;11200;51.488;6.668;2023-10-08T10:45:17;8.82;;;7.03;;
22070;SDS011;11200;51.488;6.668;2023-10-08T10:48:01;10.82;;;7.50;;
22070;SDS011;11200;51.488;6.668;2023-10-08T10:50:38;7.38;;;6.57;;
22070;SDS011;11200;51.488;6.668;2023-10-08T10:53:13;11.05;;;7.53;;
22070;SDS011;11200;51.488;6.668;2023-10-08T10:55:42;10.05;;;7.30;;
22070;SDS011;11200;51.488;6.668;2023-10-08T10:58:24;9.05;;;7.68;;
22070;SDS011;11200;51.488;6.668;2023-10-08T11:00:51;9.27;;;7.55;;
22070;SDS011;11200;51.488;6.668;2023-10-08T11:03:24;11.75;;;8.00;;
22070;SDS011;11200;51.488;6.668;2023-10-08T11:05:56;11.00;;;8.05;;
22070;SDS011;11200;51.488;6.668;2023-10-08T11:08:24;10.95;;;8.05;;
22070;SDS011;11200;51.488;6.668;2023-10-08T11:10:51;9.43;;;7.85;;
22070;SDS011;11200;51.488;6.668;2023-10-08T11:13:19;11.38;;;8.30;;
22070;SDS011;11200;51.488;6.668;2023-10-08T11:15:47;10.15;;;7.82;;
22070;SDS011;11200;51.488;6.668;2023-10-08T11:18:17;11.20;;;8.80;;
22070;SDS011;11200;51.488;6.668;2023-10-08T11:20:48;14.68;;;10.32;;
22070;SDS011;11200;51.488;6.668;2023-10-08T11:23:40;13.77;;;9.90;;
22070;SDS011;11200;51.488;6.668;2023-10-08T11:26:08;14.75;;;9.82;;
22070;SDS011;11200;51.488;6.668;2023-10-08T11:28:35;14.95;;;10.45;;
22070;SDS011;11200;51.488;6.668;2023-10-08T11:31:07;13.10;;;10.05;;
22070;SDS011;11200;51.488;6.668;2023-10-08T11:33:38;14.57;;;11.05;;
22070;SDS011;11200;51.488;6.668;2023-10-08T11:36:21;13.13;;;10.50;;
22070;SDS011;11200;51.488;6.668;2023-10-08T11:38:55;16.38;;;11.13;;
22070;SDS011;11200;51.488;6.668;2023-10-08T11:41:26;14.05;;;11.60;;
22070;SDS011;11200;51.488;6.668;2023-10-08T11:43:53;13.48;;;10.60;;
22070;SDS011;11200;51.488;6.668;2023-10-08T11:46:29;12.90;;;10.23;;
22070;SDS011;11200;51.488;6.668;2023-10-08T11:49:05;14.13;;;10.50;;
22070;SDS011;11200;51.488;6.668;2023-10-08T11:51:31;11.93;;;9.95;;
22070;SDS011;11200;51.488;6.668;2023-10-08T11:53:58;13.10;;;9.77;;
22070;SDS011;11200;51.488;6.668;2023-10-08T11:56:25;14.35;;;9.32;;
22070;SDS011;11200;51.488;6.668;2023-10-08T11:58:52;11.07;;;9.13;;
22070;SDS011;11200;51.488;6.668;2023-10-08T12:01:21;12.43;;;9.05;;
22070;SDS011;11200;51.488;6.668;2023-10-08T12:03:49;13.43;;;9.05;;
22070;SDS011;11200;51.488;6.668;2023-10-08T12:06:15;12.57;;;9.10;;
22070;SDS011;11200;51.488;6.668;2023-10-08T12:08:43;10.65;;;8.25;;
22070;SDS011;11200;51.488;6.668;2023-10-08T12:11:18;10.27;;;7.85;;
22070;SDS011;11200;51.488;6.668;2023-10-08T12:13:48;9.68;;;7.93;;
22070;SDS011;11200;51.488;6.668;2023-10-08T12:16:14;9.75;;;7.68;;
22070;SDS011;11200;51.488;6.668;2023-10-08T12:18:46;8.35;;;7.40;;
22070;SDS011;11200;51.488;6.668;2023-10-08T12:21:23;9.43;;;7.65;;
22070;SDS011;11200;51.488;6.668;2023-10-08T12:23:54;9.15;;;7.38;;
22070;SDS011;11200;51.488;6.668;2023-10-08T12:26:21;8.93;;;7.65;;
22070;SDS011;11200;51.488;6.668;2023-10-08T12:28:47;9.10;;;7.10;;
22070;SDS011;11200;51.488;6.668;2023-10-08T12:31:17;9.05;;;7.13;;
22070;SDS011;11200;51.488;6.668;2023-10-08T12:33:54;9.55;;;7.10;;
22070;SDS011;11200;51.488;6.668;2023-10-08T12:36:22;10.32;;;7.25;;
22070;SDS011;11200;51.488;6.668;2023-10-08T12:38:48;8.25;;;7.05;;
22070;SDS011;11200;51.488;6.668;2023-10-08T12:41:15;8.48;;;6.82;;
22070;SDS011;11200;51.488;6.668;2023-10-08T12:43:44;8.55;;;6.68;;
22070;SDS011;11200;51.488;6.668;2023-10-08T12:46:11;8.77;;;6.70;;
22070;SDS011;11200;51.488;6.668;2023-10-08T12:48:44;7.97;;;6.22;;
22070;SDS011;11200;51.488;6.668;2023-10-08T12:51:13;6.82;;;5.97;;
22070;SDS011;11200;51.488;6.668;2023-10-08T12:53:39;8.18;;;6.05;;
22070;SDS011;11200;51.488;6.668;2023-10-08T12:56:06;7.20;;;5.90;;
22070;SDS011;11200;51.488;6.668;2023-10-08T12:58:39;5.95;;;5.22;;
22070;SDS011;11200;51.488;6.668;2023-10-08T13:01:07;7.10;;;5.85;;
22070;SDS011;11200;51.488;6.668;2023-10-08T13:03:35;7.68;;;5.72;;
22070;SDS011;11200;51.488;6.668;2023-10-08T13:06:06;9.18;;;5.90;;
22070;SDS011;11200;51.488;6.668;2023-10-08T13:08:36;7.60;;;5.47;;
22070;SDS011;11200;51.488;6.668;2023-10-08T13:11:02;7.90;;;5.47;;
22070;SDS011;11200;51.488;6.668;2023-10-08T13:13:32;7.60;;;5.40;;
22070;SDS011;11200;51.488;6.668;2023-10-08T13:15:59;7.20;;;5.43;;
22070;SDS011;11200;51.488;6.668;2023-10-08T13:18:29;7.07;;;5.00;;
22070;SDS011;11200;51.488;6.668;2023-10-08T13:20:55;7.95;;;5.80;;
22070;SDS011;11200;51.488;6.668;2023-10-08T13:23:22;8.48;;;5.82;;
22070;SDS011;11200;51.488;6.668;2023-10-08T13:25:51;6.95;;;5.05;;
22070;SDS011;11200;51.488;6.668;2023-10-08T13:28:23;5.25;;;4.65;;
22070;SDS011;11200;51.488;6.668;2023-10-08T13:30:51;6.65;;;4.80;;
22070;SDS011;11200;51.488;6.668;2023-10-08T13:33:21;7.22;;;5.30;;
22070;SDS011;11200;51.488;6.668;2023-10-08T13:35:49;6.40;;;4.72;;
22070;SDS011;11200;51.488;6.668;2023-10-08T13:38:19;6.38;;;5.10;;
22070;SDS011;11200;51.488;6.668;2023-10-08T13:40:46;6.53;;;4.90;;
22070;SDS011;11200;51.488;6.668;2023-10-08T13:43:27;6.72;;;4.88;;
22070;SDS011;11200;51.488;6.668;2023-10-08T13:45:59;5.50;;;4.32;;
22070;SDS011;11200;51.488;6.668;2023-10-08T13:48:30;4.57;;;4.13;;
22070;SDS011;11200;51.488;6.668;2023-10-08T13:50:58;6.88;;;4.60;;
22070;SDS011;11200;51.488;6.668;2023-10-08T13:53:25;6.25;;;4.60;;
22070;SDS011;11200;51.488;6.668;2023-10-08T13:55:54;6.03;;;4.63;;
22070;SDS011;11200;51.488;6.668;2023-10-08T13:58:21;6.78;;;4.50;;
22070;SDS011;11200;51.488;6.668;2023-10-08T14:00:47;7.53;;;4.53;;
22070;SDS011;11200;51.488;6.668;2023-10-08T14:03:15;6.35;;;4.70;;
22070;SDS011;11200;51.488;6.668;2023-10-08T14:05:46;7.95;;;4.70;;
22070;SDS011;11200;51.488;6.668;2023-10-08T14:08:15;6.65;;;4.35;;
22070;SDS011;11200;51.488;6.668;2023-10-08T14:10:42;6.38;;;4.32;;
22070;SDS011;11200;51.488;6.668;2023-10-08T14:13:09;5.18;;;4.05;;
22070;SDS011;11200;51.488;6.668;2023-10-08T14:15:34;5.97;;;4.15;;
22070;SDS011;11200;51.488;6.668;2023-10-08T14:18:07;6.63;;;4.55;;
22070;SDS011;11200;51.488;6.668;2023-10-08T14:20:33;5.55;;;4.15;;
22070;SDS011;11200;51.488;6.668;2023-10-08T14:22:59;6.35;;;4.45;;
22070;SDS011;11200;51.488;6.668;2023-10-08T14:25:27;7.22;;;4.35;;
22070;SDS011;11200;51.488;6.668;2023-10-08T14:27:58;5.32;;;4.15;;
22070;SDS011;11200;51.488;6.668;2023-10-08T14:30:31;5.78;;;3.88;;
22070;SDS011;11200;51.488;6.668;2023-10-08T14:32:58;5.50;;;4.10;;
22070;SDS011;11200;51.488;6.668;2023-10-08T14:35:24;5.30;;;4.50;;
22070;SDS011;11200;51.488;6.668;2023-10-08T14:38:08;5.25;;;4.00;;
22070;SDS011;11200;51.488;6.668;2023-10-08T14:40:52;5.70;;;4.28;;
22070;SDS011;11200;51.488;6.668;2023-10-08T14:43:36;6.05;;;4.80;;
22070;SDS011;11200;51.488;6.668;2023-10-08T14:46:02;5.78;;;4.25;;
22070;SDS011;11200;51.488;6.668;2023-10-08T14:48:32;5.00;;;4.03;;
22070;SDS011;11200;51.488;6.668;2023-10-08T14:51:00;6.70;;;4.07;;
22070;SDS011;11200;51.488;6.668;2023-10-08T14:53:28;7.07;;;4.50;;
22070;SDS011;11200;51.488;6.668;2023-10-08T14:55:54;5.88;;;4.45;;
22070;SDS011;11200;51.488;6.668;2023-10-08T14:58:20;6.68;;;4.45;;
22070;SDS011;11200;51.488;6.668;2023-10-08T15:00:47;5.95;;;4.57;;
22070;SDS011;11200;51.488;6.668;2023-10-08T15:03:13;6.72;;;4.28;;
22070;SDS011;11200;51.488;6.668;2023-10-08T15:05:39;5.65;;;4.30;;
22070;SDS011;11200;51.488;6.668;2023-10-08T15:08:08;4.93;;;4.13;;
22070;SDS011;11200;51.488;6.668;2023-10-08T15:10:35;5.38;;;4.28;;
22070;SDS011;11200;51.488;6.668;2023-10-08T15:13:00;5.05;;;4.18;;
22070;SDS011;11200;51.488;6.668;2023-10-08T15:15:26;5.60;;;4.03;;
22070;SDS011;11200;51.488;6.668;2023-10-08T15:17:59;5.03;;;3.88;;
22070;SDS011;11200;51.488;6.668;2023-10-08T15:20:27;5.55;;;4.05;;
22070;SDS011;11200;51.488;6.668;2023-10-08T15:22:57;4.70;;;3.60;;
22070;SDS011;11200;51.488;6.668;2023-10-08T15:25:22;5.03;;;3.67;;
22070;SDS011;11200;51.488;6.668;2023-10-08T15:27:48;4.80;;;3.45;;